METAR Data
IDs: Format: Raw Decoded Include TAF

Data at: 1216 UTC 16 Jul 2019

KABQ 161152Z 00000KT 10SM BKN120 BKN180 24/11 A3012 RMK AO2 SLP098 T02440106 10267 20239 53003
KABQ 161052Z 18003KT 10SM BKN130 BKN160 25/10 A3011 RMK AO2 SLP093 T02500100
KABQ 160952Z 16004KT 10SM BKN150 BKN180 24/10 A3010 RMK AO2 SLP088 T02440100
KABQ 160852Z 11003KT 10SM BKN140 BKN180 25/10 A3011 RMK AO2 SLP093 T02500100 58004
KABQ 160752Z 12004KT 10SM BKN140 BKN190 BKN250 26/10 A3014 RMK AO2 SLP103 T02560100
KABQ 160652Z 20005KT 10SM FEW080 BKN160 BKN190 BKN250 26/11 A3014 RMK AO2 SLP103 T02610106 403610217
KABQ 160552Z 19004KT 10SM SCT110 BKN150 BKN220 26/10 A3013 RMK AO2 SLP103 T02610100 10339 20261 51006
KABQ 160452Z 17011KT 10SM BKN150 BKN190 27/10 A3012 RMK AO2 SLP102 T02670100
KABQ 160352Z 15007KT 10SM FEW120 SCT160 28/09 A3013 RMK AO2 SLP105 T02780094
KABQ 160252Z 26009KT 10SM SCT120 BKN160 BKN250 29/09 A3011 RMK AO2 SLP099 T02890094 53018
KABQ 160152Z 26009G22KT 10SM BKN120 BKN170 BKN250 31/09 A3009 RMK AO2 LTG DSNT E AND SE SLP090 CB DSNT E-SE T03110094
KABQ 160052Z 01007KT 10SM BKN130 BKN180 BKN250 32/10 A3006 RMK AO2 LTG DSNT SE SLP080 SHRA DSNT E AND SW T03220100
KABQ 152359Z 30009KT 10SM SCT090 BKN160 BKN250 34/09 A3005 RMK AO2 LTG DSNT E CB DSNT N AND SW SHRA DSNT N AND SW T03390089
KABQ 152352Z 28007KT 260V320 10SM VCTS SCT090CB BKN160 BKN250 34/08 A3004 RMK AO2 LTG DSNT E SLP073 OCNL LTGIC VC S TS S MOV E SHRA DSNT NW T03390083 10361 20300 56017
KABQ 152345Z 32006KT 10SM VCTS SCT090CB BKN160 BKN250 34/08 A3004 RMK AO2 OCNL LTGIC VC S TS S MOV E SHRA DSNT NW T03390083
KABQ 152252Z 30009KT 10SM SCT090CB BKN160 BKN250 34/09 A3005 RMK AO2 LTG DSNT N SLP076 CB OHD MOV E CB DSNT NW-N SHRA DSNT N T03390089
KABQ 152152Z VRB04KT 10SM FEW100 SCT170 BKN250 35/08 A3007 RMK AO2 SLP079 TCU DSNT E CB DSNT S-W T03500078
KABQ 152052Z 30007KT 270V340 10SM FEW100 SCT200 34/09 A3010 RMK AO2 SLP088 CB DSNT N AND E-SE AND S-W T03440089 58022
KABQ 151952Z 26006KT 10SM FEW080 FEW200 33/11 A3013 RMK AO2 SLP102 CB DSNT N AND E-SE AND S-W T03280106
KABQ 151852Z 00000KT 10SM FEW080 FEW200 31/11 A3016 RMK AO2 SLP112 CB DSNT S AND W TCU DSNT N T03110111
KABQ 151752Z 33003KT 10SM FEW070 SCT250 30/12 A3018 RMK AO2 SLP118 CB DSNT W T03000122 10300 20217 58009
KABQ 151652Z VRB05KT 10SM FEW060 FEW250 28/13 A3019 RMK AO2 SLP130 T02830128
KABQ 151552Z 30006KT 10SM FEW150 FEW250 27/13 A3020 RMK AO2 SLP130 T02670133
KABQ 151452Z 33006KT 10SM FEW150 FEW250 24/14 A3021 RMK AO2 SLP134 T02440139 50002
KABQ 151352Z 02007KT 10SM FEW150 FEW250 23/14 A3021 RMK AO2 SLP133 T02280139
KABQ 151252Z 34004KT 10SM FEW150 FEW250 22/13 A3021 RMK AO2 SLP132 T02220128
KABQ 151152Z 34009KT 10SM FEW120 SCT170 22/12 A3020 RMK AO2 SLP129 T02220122 10272 20222 53009
KABQ 151052Z 04006KT 10SM FEW120 FEW170 23/13 A3019 RMK AO2 SLP123 T02280128 $
KABQ 150952Z 06013KT 10SM SCT120 SCT170 24/12 A3019 RMK AO2 SLP120 T02390122 $
KABQ 150852Z 09016G25KT 10SM SCT120 SCT170 25/11 A3017 RMK AO2 SLP114 T02500106 58007 $
KABQ 150752Z 11006KT 10SM FEW110 SCT170 SCT250 25/11 A3018 RMK AO2 SLP118 T02500106 $
KABQ 150652Z 03003KT 10SM SCT120 SCT150 26/10 A3020 RMK AO2 SLP126 T02610100 403560222 $
KABQ 150552Z 02005KT 10SM SCT120 SCT150 27/11 A3020 RMK AO2 PK WND 01029/0457 SLP126 T02720111 10344 20250 51021 $
KABQ 150452Z 01023G34KT 10SM SCT110 BKN160 25/12 A3019 RMK AO2 PK WND 01035/0434 WSHFT 0419 SLP124 T02500122 $
KABQ 150439Z 01028G35KT 10SM SCT110 BKN160 26/12 A3019 RMK AO2 PK WND 01035/0434 WSHFT 0419 T02560122 $
KABQ 150352Z 13006KT 10SM SCT080 SCT160 29/10 A3016 RMK AO2 SLP112 T02890100 $
KABQ 150252Z 14010KT 10SM SCT110 SCT170 BKN250 30/09 A3013 RMK AO2 SLP104 T03000094 53006 $
KABQ 150152Z 04006KT 10SM SCT110 SCT150 BKN250 32/07 A3012 RMK AO2 LTG DSNT SE SLP099 CB DSNT SE T03220072 $
KABQ 150052Z 29013KT 10SM SCT100 BKN150 BKN250 32/08 A3011 RMK AO2 LTG DSNT NE AND SE SLP098 VIRGA ALQDS CB DSNT NE T03170078 $
KABQ 150028Z 28015KT 10SM SCT100 BKN150 BKN250 32/08 A3012 RMK AO2 LTG DSNT N AND NE VIRGA ALQDS CB DSNT NE T03220078 $